sensor_id;sensor_type;location;lat;lon;timestamp;pressure;altitude;pressure_sealevel;temperature;humidity
41202;BME280;26936;50.524;8.684;2023-07-20T00:02:12;99105.94;;;17.63;82.43
41202;BME280;26936;50.524;8.684;2023-07-20T00:04:37;99100.22;;;17.57;83.06
41202;BME280;26936;50.524;8.684;2023-07-20T00:07:03;99105.09;;;17.51;83.27
41202;BME280;26936;50.524;8.684;2023-07-20T00:09:29;99098.59;;;17.45;84.14
41202;BME280;26936;50.524;8.684;2023-07-20T00:11:54;99106.50;;;17.35;84.78
41202;BME280;26936;50.524;8.684;2023-07-20T00:14:20;99101.78;;;17.27;85.13
41202;BME280;26936;50.524;8.684;2023-07-20T00:16:46;99094.25;;;17.24;85.13
41202;BME280;26936;50.524;8.684;2023-07-20T00:19:12;99092.41;;;17.21;85.35
41202;BME280;26936;50.524;8.684;2023-07-20T00:21:38;99098.38;;;17.23;85.37
41202;BME280;26936;50.524;8.684;2023-07-20T00:24:05;99096.53;;;17.20;85.37
41202;BME280;26936;50.524;8.684;2023-07-20T00:26:31;99099.59;;;17.16;85.49
41202;BME280;26936;50.524;8.684;2023-07-20T00:28:56;99093.38;;;17.12;85.95
41202;BME280;26936;50.524;8.684;2023-07-20T00:31:22;99093.88;;;17.11;86.10
41202;BME280;26936;50.524;8.684;2023-07-20T00:33:47;99102.41;;;17.11;86.31
41202;BME280;26936;50.524;8.684;2023-07-20T00:36:12;99093.38;;;17.12;86.20
41202;BME280;26936;50.524;8.684;2023-07-20T00:38:38;99091.81;;;17.11;85.82
41202;BME280;26936;50.524;8.684;2023-07-20T00:41:03;99088.91;;;17.06;86.02
41202;BME280;26936;50.524;8.684;2023-07-20T00:43:28;99092.06;;;17.13;85.21
41202;BME280;26936;50.524;8.684;2023-07-20T00:45:54;99092.81;;;17.08;85.60
41202;BME280;26936;50.524;8.684;2023-07-20T00:48:19;99084.19;;;16.97;86.18
41202;BME280;26936;50.524;8.684;2023-07-20T00:50:45;99089.78;;;16.86;86.85
41202;BME280;26936;50.524;8.684;2023-07-20T00:53:11;99097.19;;;16.78;87.42
41202;BME280;26936;50.524;8.684;2023-07-20T00:55:37;99096.63;;;16.74;87.24
41202;BME280;26936;50.524;8.684;2023-07-20T00:58:02;99094.75;;;16.66;87.70
41202;BME280;26936;50.524;8.684;2023-07-20T01:00:28;99090.81;;;16.63;87.59
41202;BME280;26936;50.524;8.684;2023-07-20T01:02:53;99092.38;;;16.64;87.92
41202;BME280;26936;50.524;8.684;2023-07-20T01:05:19;99096.19;;;16.56;88.23
41202;BME280;26936;50.524;8.684;2023-07-20T01:07:54;99108.06;;;16.54;88.47
41202;BME280;26936;50.524;8.684;2023-07-20T01:12:51;99104.44;;;16.54;88.15
41202;BME280;26936;50.524;8.684;2023-07-20T01:15:17;99097.41;;;16.49;88.06
41202;BME280;26936;50.524;8.684;2023-07-20T01:17:42;99097.13;;;16.47;87.85
41202;BME280;26936;50.524;8.684;2023-07-20T01:20:10;99096.50;;;16.43;87.98
41202;BME280;26936;50.524;8.684;2023-07-20T01:26:07;99098.44;;;16.31;88.59
41202;BME280;26936;50.524;8.684;2023-07-20T01:31:25;99103.00;;;16.23;88.93
41202;BME280;26936;50.524;8.684;2023-07-20T01:33:54;99096.56;;;16.23;89.22
41202;BME280;26936;50.524;8.684;2023-07-20T01:36:22;99086.19;;;16.20;89.64
41202;BME280;26936;50.524;8.684;2023-07-20T01:38:49;99090.00;;;16.17;90.05
41202;BME280;26936;50.524;8.684;2023-07-20T01:41:15;99093.34;;;16.15;90.38
41202;BME280;26936;50.524;8.684;2023-07-20T01:43:40;99095.63;;;16.11;90.62
41202;BME280;26936;50.524;8.684;2023-07-20T01:46:06;99099.47;;;16.08;91.04
41202;BME280;26936;50.524;8.684;2023-07-20T01:48:31;99092.72;;;16.06;91.34
41202;BME280;26936;50.524;8.684;2023-07-20T01:50:57;99097.34;;;16.03;91.68
41202;BME280;26936;50.524;8.684;2023-07-20T01:53:22;99096.63;;;16.08;91.75
41202;BME280;26936;50.524;8.684;2023-07-20T01:55:47;99091.91;;;16.05;92.16
41202;BME280;26936;50.524;8.684;2023-07-20T01:58:13;99106.19;;;16.11;92.32
41202;BME280;26936;50.524;8.684;2023-07-20T02:00:38;99105.78;;;16.18;92.11
41202;BME280;26936;50.524;8.684;2023-07-20T02:03:04;99116.69;;;16.25;91.77
41202;BME280;26936;50.524;8.684;2023-07-20T02:05:30;99113.44;;;16.32;91.29
41202;BME280;26936;50.524;8.684;2023-07-20T02:07:55;99116.41;;;16.43;90.67
41202;BME280;26936;50.524;8.684;2023-07-20T02:10:20;99122.19;;;16.49;90.21
41202;BME280;26936;50.524;8.684;2023-07-20T02:12:46;99110.31;;;16.50;89.65
41202;BME280;26936;50.524;8.684;2023-07-20T02:15:12;99117.34;;;16.55;89.62
41202;BME280;26936;50.524;8.684;2023-07-20T02:17:39;99121.47;;;16.54;89.68
41202;BME280;26936;50.524;8.684;2023-07-20T02:20:07;99119.94;;;16.53;89.90
41202;BME280;26936;50.524;8.684;2023-07-20T02:22:34;99116.31;;;16.52;89.86
41202;BME280;26936;50.524;8.684;2023-07-20T02:25:06;99113.75;;;16.54;89.93
41202;BME280;26936;50.524;8.684;2023-07-20T02:27:32;99111.94;;;16.57;89.76
41202;BME280;26936;50.524;8.684;2023-07-20T02:29:58;99107.88;;;16.63;89.25
41202;BME280;26936;50.524;8.684;2023-07-20T02:32:23;99107.09;;;16.63;89.18
41202;BME280;26936;50.524;8.684;2023-07-20T02:34:48;99103.53;;;16.68;88.85
41202;BME280;26936;50.524;8.684;2023-07-20T02:37:14;99105.38;;;16.71;88.91
41202;BME280;26936;50.524;8.684;2023-07-20T02:39:39;99105.88;;;16.69;88.68
41202;BME280;26936;50.524;8.684;2023-07-20T02:42:05;99103.31;;;16.71;88.84
41202;BME280;26936;50.524;8.684;2023-07-20T02:44:31;99112.94;;;16.74;88.83
41202;BME280;26936;50.524;8.684;2023-07-20T02:46:56;99109.56;;;16.75;88.52
41202;BME280;26936;50.524;8.684;2023-07-20T02:49:21;99110.91;;;16.80;88.08
41202;BME280;26936;50.524;8.684;2023-07-20T02:51:48;99114.25;;;16.78;88.25
41202;BME280;26936;50.524;8.684;2023-07-20T02:54:14;99112.69;;;16.77;88.27
41202;BME280;26936;50.524;8.684;2023-07-20T02:56:40;99108.56;;;16.78;88.27
41202;BME280;26936;50.524;8.684;2023-07-20T02:59:05;99112.97;;;16.79;88.52
41202;BME280;26936;50.524;8.684;2023-07-20T03:01:31;99111.13;;;16.76;88.32
41202;BME280;26936;50.524;8.684;2023-07-20T03:03:56;99112.41;;;16.75;88.28
41202;BME280;26936;50.524;8.684;2023-07-20T03:06:22;99119.16;;;16.78;88.05
41202;BME280;26936;50.524;8.684;2023-07-20T03:08:48;99119.13;;;16.72;88.51
41202;BME280;26936;50.524;8.684;2023-07-20T03:11:17;99111.81;;;16.66;89.06
41202;BME280;26936;50.524;8.684;2023-07-20T03:13:43;99116.72;;;16.65;89.50
41202;BME280;26936;50.524;8.684;2023-07-20T03:16:09;99117.44;;;16.60;90.06
41202;BME280;26936;50.524;8.684;2023-07-20T03:18:39;99109.41;;;16.59;89.98
41202;BME280;26936;50.524;8.684;2023-07-20T03:21:06;99110.41;;;16.56;90.43
41202;BME280;26936;50.524;8.684;2023-07-20T03:23:32;99114.72;;;16.51;91.10
41202;BME280;26936;50.524;8.684;2023-07-20T03:25:57;99126.09;;;16.51;91.20
41202;BME280;26936;50.524;8.684;2023-07-20T03:28:23;99110.53;;;16.47;91.85
41202;BME280;26936;50.524;8.684;2023-07-20T03:30:55;99114.34;;;16.44;92.41
41202;BME280;26936;50.524;8.684;2023-07-20T03:33:28;99122.09;;;16.43;92.87
41202;BME280;26936;50.524;8.684;2023-07-20T03:35:55;99121.84;;;16.41;93.23
41202;BME280;26936;50.524;8.684;2023-07-20T03:38:21;99120.75;;;16.39;94.23
41202;BME280;26936;50.524;8.684;2023-07-20T03:40:57;99125.66;;;16.38;94.73
41202;BME280;26936;50.524;8.684;2023-07-20T03:43:24;99118.13;;;16.35;95.62
41202;BME280;26936;50.524;8.684;2023-07-20T03:45:50;99128.03;;;16.40;96.04
41202;BME280;26936;50.524;8.684;2023-07-20T03:48:20;99133.41;;;16.38;96.00
41202;BME280;26936;50.524;8.684;2023-07-20T03:50:48;99131.56;;;16.35;96.41
41202;BME280;26936;50.524;8.684;2023-07-20T03:53:14;99130.78;;;16.34;96.70
41202;BME280;26936;50.524;8.684;2023-07-20T03:55:46;99125.88;;;16.35;96.97
41202;BME280;26936;50.524;8.684;2023-07-20T03:58:12;99131.28;;;16.33;97.24
41202;BME280;26936;50.524;8.684;2023-07-20T04:00:38;99136.97;;;16.33;97.38
41202;BME280;26936;50.524;8.684;2023-07-20T04:03:04;99137.75;;;16.33;97.09
41202;BME280;26936;50.524;8.684;2023-07-20T04:05:30;99137.47;;;16.31;97.44
41202;BME280;26936;50.524;8.684;2023-07-20T04:07:55;99136.19;;;16.32;97.25
41202;BME280;26936;50.524;8.684;2023-07-20T04:10:20;99149.34;;;16.29;97.60
41202;BME280;26936;50.524;8.684;2023-07-20T04:12:46;99142.66;;;16.33;97.38
41202;BME280;26936;50.524;8.684;2023-07-20T04:15:14;99146.28;;;16.33;97.73
41202;BME280;26936;50.524;8.684;2023-07-20T04:17:40;99146.50;;;16.29;97.68
41202;BME280;26936;50.524;8.684;2023-07-20T04:20:06;99142.28;;;16.25;97.85
41202;BME280;26936;50.524;8.684;2023-07-20T04:22:32;99139.22;;;16.28;97.99
41202;BME280;26936;50.524;8.684;2023-07-20T04:24:57;99145.69;;;16.29;97.76
41202;BME280;26936;50.524;8.684;2023-07-20T04:27:22;99149.25;;;16.24;98.45
41202;BME280;26936;50.524;8.684;2023-07-20T04:29:47;99147.50;;;16.26;98.22
41202;BME280;26936;50.524;8.684;2023-07-20T04:32:13;99149.84;;;16.28;98.14
41202;BME280;26936;50.524;8.684;2023-07-20T04:34:38;99146.50;;;16.29;98.37
41202;BME280;26936;50.524;8.684;2023-07-20T04:37:04;99148.84;;;16.31;97.97
41202;BME280;26936;50.524;8.684;2023-07-20T04:39:30;99149.03;;;16.27;99.05
41202;BME280;26936;50.524;8.684;2023-07-20T04:41:55;99144.34;;;16.24;99.39
41202;BME280;26936;50.524;8.684;2023-07-20T04:44:21;99142.00;;;16.23;99.91
41202;BME280;26936;50.524;8.684;2023-07-20T04:46:46;99146.50;;;16.29;99.87
41202;BME280;26936;50.524;8.684;2023-07-20T04:49:11;99158.06;;;16.26;100.00
41202;BME280;26936;50.524;8.684;2023-07-20T04:51:38;99156.72;;;16.21;100.00
41202;BME280;26936;50.524;8.684;2023-07-20T04:54:03;99154.72;;;16.27;100.00
41202;BME280;26936;50.524;8.684;2023-07-20T04:56:29;99159.31;;;16.25;100.00
41202;BME280;26936;50.524;8.684;2023-07-20T04:58:54;99149.84;;;16.28;100.00
41202;BME280;26936;50.524;8.684;2023-07-20T05:01:19;99149.75;;;16.22;100.00
41202;BME280;26936;50.524;8.684;2023-07-20T05:03:45;99140.81;;;16.29;100.00
41202;BME280;26936;50.524;8.684;2023-07-20T05:06:10;99147.63;;;16.38;100.00
41202;BME280;26936;50.524;8.684;2023-07-20T05:08:36;99151.88;;;16.27;100.00
41202;BME280;26936;50.524;8.684;2023-07-20T05:11:01;99150.69;;;16.34;100.00
41202;BME280;26936;50.524;8.684;2023-07-20T05:13:26;99151.88;;;16.27;100.00
41202;BME280;26936;50.524;8.684;2023-07-20T05:15:53;99150.75;;;16.19;100.00
41202;BME280;26936;50.524;8.684;2023-07-20T05:18:19;99154.28;;;16.14;100.00
41202;BME280;26936;50.524;8.684;2023-07-20T05:20:46;99160.19;;;16.11;100.00
41202;BME280;26936;50.524;8.684;2023-07-20T05:23:11;99159.63;;;16.07;100.00
41202;BME280;26936;50.524;8.684;2023-07-20T05:25:36;99166.16;;;16.13;100.00
41202;BME280;26936;50.524;8.684;2023-07-20T05:28:02;99163.59;;;16.15;100.00
41202;BME280;26936;50.524;8.684;2023-07-20T05:30:27;99160.75;;;16.15;100.00
41202;BME280;26936;50.524;8.684;2023-07-20T05:32:54;99170.19;;;16.06;100.00
41202;BME280;26936;50.524;8.684;2023-07-20T05:35:20;99176.16;;;16.08;100.00
41202;BME280;26936;50.524;8.684;2023-07-20T05:37:45;99163.03;;;16.11;100.00
41202;BME280;26936;50.524;8.684;2023-07-20T05:40:11;99173.19;;;16.17;100.00
41202;BME280;26936;50.524;8.684;2023-07-20T05:42:38;99163.38;;;16.18;100.00
41202;BME280;26936;50.524;8.684;2023-07-20T05:45:03;99151.19;;;16.33;100.00
41202;BME280;26936;50.524;8.684;2023-07-20T05:47:28;99166.22;;;16.39;100.00
41202;BME280;26936;50.524;8.684;2023-07-20T05:49:54;99163.47;;;16.44;100.00
41202;BME280;26936;50.524;8.684;2023-07-20T05:52:19;99172.44;;;16.57;100.00
41202;BME280;26936;50.524;8.684;2023-07-20T05:54:45;99173.94;;;16.53;100.00
41202;BME280;26936;50.524;8.684;2023-07-20T05:57:10;99178.97;;;16.63;100.00
41202;BME280;26936;50.524;8.684;2023-07-20T05:59:35;99185.44;;;16.64;100.00
41202;BME280;26936;50.524;8.684;2023-07-20T06:02:01;99180.94;;;16.77;100.00
41202;BME280;26936;50.524;8.684;2023-07-20T06:04:26;99186.19;;;16.84;100.00
41202;BME280;26936;50.524;8.684;2023-07-20T06:06:52;99190.28;;;17.03;99.49
41202;BME280;26936;50.524;8.684;2023-07-20T06:09:17;99191.16;;;17.15;97.75
41202;BME280;26936;50.524;8.684;2023-07-20T06:11:43;99197.03;;;17.06;97.66
41202;BME280;26936;50.524;8.684;2023-07-20T06:14:08;99184.94;;;17.11;97.43
41202;BME280;26936;50.524;8.684;2023-07-20T06:16:33;99190.28;;;17.29;96.13
41202;BME280;26936;50.524;8.684;2023-07-20T06:19:00;99195.09;;;17.17;95.78
41202;BME280;26936;50.524;8.684;2023-07-20T06:21:25;99198.09;;;17.34;94.43
41202;BME280;26936;50.524;8.684;2023-07-20T06:23:51;99197.38;;;17.39;94.78
41202;BME280;26936;50.524;8.684;2023-07-20T06:26:16;99206.69;;;17.39;95.43
41202;BME280;26936;50.524;8.684;2023-07-20T06:28:41;99199.16;;;17.36;94.56
41202;BME280;26936;50.524;8.684;2023-07-20T06:31:07;99196.53;;;17.33;94.46
41202;BME280;26936;50.524;8.684;2023-07-20T06:33:32;99193.75;;;17.38;93.46
41202;BME280;26936;50.524;8.684;2023-07-20T06:35:57;99199.59;;;17.29;93.99
41202;BME280;26936;50.524;8.684;2023-07-20T06:38:23;99190.31;;;17.34;93.53
41202;BME280;26936;50.524;8.684;2023-07-20T06:40:49;99204.31;;;17.58;92.67
41202;BME280;26936;50.524;8.684;2023-07-20T06:43:16;99198.25;;;17.82;91.61
41202;BME280;26936;50.524;8.684;2023-07-20T06:45:41;99192.03;;;17.78;89.68
41202;BME280;26936;50.524;8.684;2023-07-20T06:48:07;99188.34;;;18.03;89.00
41202;BME280;26936;50.524;8.684;2023-07-20T06:50:32;99193.13;;;18.28;86.64
41202;BME280;26936;50.524;8.684;2023-07-20T06:52:58;99190.03;;;18.31;86.08
41202;BME280;26936;50.524;8.684;2023-07-20T06:55:24;99183.72;;;18.58;83.61
41202;BME280;26936;50.524;8.684;2023-07-20T06:57:49;99196.38;;;18.46;85.33
41202;BME280;26936;50.524;8.684;2023-07-20T07:00:14;99200.31;;;18.12;86.75
41202;BME280;26936;50.524;8.684;2023-07-20T07:02:40;99195.13;;;18.11;86.64
41202;BME280;26936;50.524;8.684;2023-07-20T07:05:05;99207.22;;;18.00;87.08
41202;BME280;26936;50.524;8.684;2023-07-20T07:07:31;99201.66;;;18.22;86.30
41202;BME280;26936;50.524;8.684;2023-07-20T07:09:57;99205.09;;;18.32;85.67
41202;BME280;26936;50.524;8.684;2023-07-20T07:12:22;99205.44;;;18.45;85.11
41202;BME280;26936;50.524;8.684;2023-07-20T07:14:47;99194.72;;;18.34;85.43
41202;BME280;26936;50.524;8.684;2023-07-20T07:17:13;99200.06;;;18.58;84.32
41202;BME280;26936;50.524;8.684;2023-07-20T07:19:38;99200.78;;;18.42;85.20
41202;BME280;26936;50.524;8.684;2023-07-20T07:22:04;99200.53;;;18.51;84.35
41202;BME280;26936;50.524;8.684;2023-07-20T07:24:29;99195.78;;;18.37;84.64
41202;BME280;26936;50.524;8.684;2023-07-20T07:27:01;99193.06;;;18.17;84.63
41202;BME280;26936;50.524;8.684;2023-07-20T07:29:30;99192.84;;;18.20;84.42
41202;BME280;26936;50.524;8.684;2023-07-20T07:31:55;99197.66;;;18.40;83.77
41202;BME280;26936;50.524;8.684;2023-07-20T07:34:20;99198.50;;;18.57;82.56
41202;BME280;26936;50.524;8.684;2023-07-20T07:36:46;99201.91;;;18.66;82.44
41202;BME280;26936;50.524;8.684;2023-07-20T07:39:12;99200.16;;;18.91;80.79
41202;BME280;26936;50.524;8.684;2023-07-20T07:41:37;99201.72;;;18.81;80.02
41202;BME280;26936;50.524;8.684;2023-07-20T07:44:03;99202.59;;;18.45;81.76
41202;BME280;26936;50.524;8.684;2023-07-20T07:46:28;99205.78;;;18.63;81.91
41202;BME280;26936;50.524;8.684;2023-07-20T07:48:53;99202.44;;;18.70;80.91
41202;BME280;26936;50.524;8.684;2023-07-20T07:51:19;99199.16;;;18.88;79.87
41202;BME280;26936;50.524;8.684;2023-07-20T07:53:46;99199.44;;;19.02;79.02
41202;BME280;26936;50.524;8.684;2023-07-20T07:56:11;99199.22;;;19.16;78.37
41202;BME280;26936;50.524;8.684;2023-07-20T07:58:37;99198.34;;;18.88;79.81
41202;BME280;26936;50.524;8.684;2023-07-20T08:01:03;99204.34;;;19.01;79.03
41202;BME280;26936;50.524;8.684;2023-07-20T08:03:29;99205.13;;;18.96;80.38
41202;BME280;26936;50.524;8.684;2023-07-20T08:05:55;99207.16;;;18.79;80.25
41202;BME280;26936;50.524;8.684;2023-07-20T08:08:20;99209.25;;;18.89;80.34
41202;BME280;26936;50.524;8.684;2023-07-20T08:10:46;99205.38;;;18.98;78.91
41202;BME280;26936;50.524;8.684;2023-07-20T08:13:12;99215.72;;;18.79;78.97
41202;BME280;26936;50.524;8.684;2023-07-20T08:15:38;99214.22;;;19.06;77.97
41202;BME280;26936;50.524;8.684;2023-07-20T08:18:03;99207.84;;;19.33;76.80
41202;BME280;26936;50.524;8.684;2023-07-20T08:20:28;99212.25;;;19.34;76.10
41202;BME280;26936;50.524;8.684;2023-07-20T08:22:54;99217.88;;;19.17;75.76
41202;BME280;26936;50.524;8.684;2023-07-20T08:25:20;99209.41;;;19.39;75.10
41202;BME280;26936;50.524;8.684;2023-07-20T08:27:45;99216.16;;;19.47;74.15
41202;BME280;26936;50.524;8.684;2023-07-20T08:30:12;99212.28;;;19.50;75.41
41202;BME280;26936;50.524;8.684;2023-07-20T08:32:38;99228.34;;;19.37;75.97
41202;BME280;26936;50.524;8.684;2023-07-20T08:35:05;99233.75;;;19.24;76.25
41202;BME280;26936;50.524;8.684;2023-07-20T08:37:30;99217.94;;;19.28;74.91
41202;BME280;26936;50.524;8.684;2023-07-20T08:39:56;99217.72;;;19.37;75.00
41202;BME280;26936;50.524;8.684;2023-07-20T08:42:22;99222.69;;;19.86;72.22
41202;BME280;26936;50.524;8.684;2023-07-20T08:44:48;99213.28;;;20.13;70.87
41202;BME280;26936;50.524;8.684;2023-07-20T08:47:16;99211.47;;;20.10;71.18
41202;BME280;26936;50.524;8.684;2023-07-20T08:49:41;99225.28;;;20.06;72.23
41202;BME280;26936;50.524;8.684;2023-07-20T08:52:07;99223.69;;;19.61;72.81
41202;BME280;26936;50.524;8.684;2023-07-20T08:54:33;99208.16;;;19.79;71.65
41202;BME280;26936;50.524;8.684;2023-07-20T08:57:04;99226.53;;;19.39;72.03
41202;BME280;26936;50.524;8.684;2023-07-20T08:59:30;99232.53;;;19.47;70.53
41202;BME280;26936;50.524;8.684;2023-07-20T09:01:57;99221.91;;;19.53;71.23
41202;BME280;26936;50.524;8.684;2023-07-20T09:04:23;99221.63;;;19.62;69.94
41202;BME280;26936;50.524;8.684;2023-07-20T09:06:49;99218.78;;;19.89;67.64
41202;BME280;26936;50.524;8.684;2023-07-20T09:09:15;99212.53;;;20.13;65.36
41202;BME280;26936;50.524;8.684;2023-07-20T09:11:40;99209.66;;;20.24;63.44
41202;BME280;26936;50.524;8.684;2023-07-20T09:14:07;99206.06;;;20.18;65.48
41202;BME280;26936;50.524;8.684;2023-07-20T09:16:50;99224.75;;;19.86;69.04
41202;BME280;26936;50.524;8.684;2023-07-20T09:19:16;99225.00;;;19.49;70.06
41202;BME280;26936;50.524;8.684;2023-07-20T09:21:45;99229.34;;;19.23;70.88
41202;BME280;26936;50.524;8.684;2023-07-20T09:24:11;99222.66;;;19.53;70.00
41202;BME280;26936;50.524;8.684;2023-07-20T09:26:41;99222.16;;;19.88;67.63
41202;BME280;26936;50.524;8.684;2023-07-20T09:29:07;99219.28;;;20.38;65.39
41202;BME280;26936;50.524;8.684;2023-07-20T09:31:34;99212.69;;;20.59;62.63
41202;BME280;26936;50.524;8.684;2023-07-20T09:33:59;99209.16;;;20.94;59.50
41202;BME280;26936;50.524;8.684;2023-07-20T09:36:26;99212.03;;;20.94;59.96
41202;BME280;26936;50.524;8.684;2023-07-20T09:38:52;99210.63;;;21.22;59.47
41202;BME280;26936;50.524;8.684;2023-07-20T09:41:17;99209.97;;;20.89;60.62
41202;BME280;26936;50.524;8.684;2023-07-20T09:43:45;99224.66;;;20.58;62.41
41202;BME280;26936;50.524;8.684;2023-07-20T09:46:10;99223.44;;;20.03;64.16
41202;BME280;26936;50.524;8.684;2023-07-20T09:48:36;99226.56;;;20.16;63.23
41202;BME280;26936;50.524;8.684;2023-07-20T09:51:01;99218.22;;;20.41;63.08
41202;BME280;26936;50.524;8.684;2023-07-20T09:53:27;99220.25;;;20.62;61.89
41202;BME280;26936;50.524;8.684;2023-07-20T09:55:54;99215.75;;;20.78;60.62
41202;BME280;26936;50.524;8.684;2023-07-20T09:58:19;99200.78;;;21.07;59.00
41202;BME280;26936;50.524;8.684;2023-07-20T10:00:46;99217.19;;;21.06;56.15
41202;BME280;26936;50.524;8.684;2023-07-20T10:03:20;99209.72;;;21.38;55.70
41202;BME280;26936;50.524;8.684;2023-07-20T10:05:58;99210.13;;;21.13;56.44
41202;BME280;26936;50.524;8.684;2023-07-20T10:08:25;99210.28;;;20.80;57.84
41202;BME280;26936;50.524;8.684;2023-07-20T10:10:51;99206.41;;;20.72;60.01
41202;BME280;26936;50.524;8.684;2023-07-20T10:13:18;99207.16;;;20.78;58.84
41202;BME280;26936;50.524;8.684;2023-07-20T10:15:50;99201.13;;;20.98;58.84
41202;BME280;26936;50.524;8.684;2023-07-20T10:21:24;99191.03;;;21.26;57.70
41202;BME280;26936;50.524;8.684;2023-07-20T10:23:50;99186.09;;;21.27;57.26
41202;BME280;26936;50.524;8.684;2023-07-20T10:26:16;99184.53;;;21.26;57.42
41202;BME280;26936;50.524;8.684;2023-07-20T10:28:41;99190.41;;;21.44;57.69
41202;BME280;26936;50.524;8.684;2023-07-20T10:31:09;99185.34;;;21.62;56.53
41202;BME280;26936;50.524;8.684;2023-07-20T10:33:37;99192.78;;;21.70;56.71
41202;BME280;26936;50.524;8.684;2023-07-20T10:36:04;99190.09;;;21.83;55.49
41202;BME280;26936;50.524;8.684;2023-07-20T10:41:20;99168.19;;;21.50;56.04
41202;BME280;26936;50.524;8.684;2023-07-20T10:44:01;99171.53;;;21.60;54.23
41202;BME280;26936;50.524;8.684;2023-07-20T10:49:04;99162.56;;;22.28;52.69
41202;BME280;26936;50.524;8.684;2023-07-20T10:51:31;99167.56;;;22.22;54.32
41202;BME280;26936;50.524;8.684;2023-07-20T10:54:03;99162.91;;;21.95;55.50
41202;BME280;26936;50.524;8.684;2023-07-20T10:56:29;99166.13;;;22.34;53.05
41202;BME280;26936;50.524;8.684;2023-07-20T10:59:00;99161.34;;;22.18;53.30
41202;BME280;26936;50.524;8.684;2023-07-20T11:01:30;99150.28;;;22.52;53.03
41202;BME280;26936;50.524;8.684;2023-07-20T11:03:59;99156.69;;;22.63;51.06
41202;BME280;26936;50.524;8.684;2023-07-20T11:11:22;99162.41;;;21.91;52.69
41202;BME280;26936;50.524;8.684;2023-07-20T11:14:00;99154.34;;;21.90;52.19
41202;BME280;26936;50.524;8.684;2023-07-20T11:16:39;99151.91;;;21.99;51.36
41202;BME280;26936;50.524;8.684;2023-07-20T11:19:05;99153.88;;;21.86;52.17
41202;BME280;26936;50.524;8.684;2023-07-20T11:21:37;99151.53;;;21.84;51.58
41202;BME280;26936;50.524;8.684;2023-07-20T11:24:06;99149.06;;;21.64;52.59
41202;BME280;26936;50.524;8.684;2023-07-20T11:26:47;99142.72;;;22.06;52.91
41202;BME280;26936;50.524;8.684;2023-07-20T11:29:13;99140.97;;;22.22;51.60
41202;BME280;26936;50.524;8.684;2023-07-20T11:31:40;99146.69;;;22.46;51.39
41202;BME280;26936;50.524;8.684;2023-07-20T11:34:09;99137.63;;;22.66;50.19
41202;BME280;26936;50.524;8.684;2023-07-20T11:36:35;99140.38;;;22.53;50.09
41202;BME280;26936;50.524;8.684;2023-07-20T11:39:00;99132.94;;;23.19;47.60
41202;BME280;26936;50.524;8.684;2023-07-20T11:41:26;99137.59;;;23.40;45.48
41202;BME280;26936;50.524;8.684;2023-07-20T11:43:52;99132.97;;;23.50;46.43
41202;BME280;26936;50.524;8.684;2023-07-20T11:46:18;99134.13;;;23.60;45.70
41202;BME280;26936;50.524;8.684;2023-07-20T11:48:44;99134.72;;;23.72;46.03
41202;BME280;26936;50.524;8.684;2023-07-20T11:51:16;99124.41;;;24.08;46.21
41202;BME280;26936;50.524;8.684;2023-07-20T11:53:42;99129.19;;;23.42;45.90
41202;BME280;26936;50.524;8.684;2023-07-20T11:56:08;99129.91;;;23.11;47.86
41202;BME280;26936;50.524;8.684;2023-07-20T11:58:33;99137.63;;;22.66;48.02
41202;BME280;26936;50.524;8.684;2023-07-20T12:00:58;99130.16;;;22.95;47.49
41202;BME280;26936;50.524;8.684;2023-07-20T12:03:24;99125.69;;;23.49;46.83
41202;BME280;26936;50.524;8.684;2023-07-20T12:05:49;99132.16;;;23.68;46.81
41202;BME280;26936;50.524;8.684;2023-07-20T12:08:15;99126.03;;;24.03;45.58
41202;BME280;26936;50.524;8.684;2023-07-20T12:10:42;99129.03;;;23.35;47.15
41202;BME280;26936;50.524;8.684;2023-07-20T12:13:10;99120.91;;;23.39;47.43
41202;BME280;26936;50.524;8.684;2023-07-20T12:15:38;99141.53;;;23.19;47.76
41202;BME280;26936;50.524;8.684;2023-07-20T12:18:04;99122.22;;;23.01;48.09
41202;BME280;26936;50.524;8.684;2023-07-20T12:20:35;99125.03;;;23.06;48.03
41202;BME280;26936;50.524;8.684;2023-07-20T12:23:12;99127.06;;;23.30;47.35
41202;BME280;26936;50.524;8.684;2023-07-20T12:25:40;99128.91;;;23.09;47.67
41202;BME280;26936;50.524;8.684;2023-07-20T12:28:10;99133.81;;;23.32;46.86
41202;BME280;26936;50.524;8.684;2023-07-20T12:30:37;99131.78;;;23.27;46.15
41202;BME280;26936;50.524;8.684;2023-07-20T12:33:02;99132.25;;;23.31;45.82
41202;BME280;26936;50.524;8.684;2023-07-20T12:35:29;99126.44;;;23.18;45.47
41202;BME280;26936;50.524;8.684;2023-07-20T12:37:55;99132.31;;;22.70;46.84
41202;BME280;26936;50.524;8.684;2023-07-20T12:40:20;99129.84;;;22.37;46.36
41202;BME280;26936;50.524;8.684;2023-07-20T12:42:46;99129.84;;;22.37;47.75
41202;BME280;26936;50.524;8.684;2023-07-20T12:45:11;99136.00;;;22.22;48.27
41202;BME280;26936;50.524;8.684;2023-07-20T12:47:36;99130.28;;;22.22;47.31
41202;BME280;26936;50.524;8.684;2023-07-20T12:50:02;99127.94;;;22.21;47.17
41202;BME280;26936;50.524;8.684;2023-07-20T12:52:31;99127.94;;;22.45;47.72
41202;BME280;26936;50.524;8.684;2023-07-20T12:54:56;99125.97;;;22.34;48.33
41202;BME280;26936;50.524;8.684;2023-07-20T12:57:22;99135.75;;;22.44;46.21
41202;BME280;26936;50.524;8.684;2023-07-20T12:59:47;99133.03;;;22.52;46.41
41202;BME280;26936;50.524;8.684;2023-07-20T13:02:13;99134.03;;;22.78;46.43
41202;BME280;26936;50.524;8.684;2023-07-20T13:04:38;99136.97;;;23.29;44.99
41202;BME280;26936;50.524;8.684;2023-07-20T13:07:03;99135.72;;;23.06;45.12
41202;BME280;26936;50.524;8.684;2023-07-20T13:09:29;99126.38;;;23.05;44.42
41202;BME280;26936;50.524;8.684;2023-07-20T13:11:54;99126.44;;;23.50;43.89
41202;BME280;26936;50.524;8.684;2023-07-20T13:14:19;99126.66;;;23.83;43.76
41202;BME280;26936;50.524;8.684;2023-07-20T13:16:45;99124.78;;;23.86;44.34
41202;BME280;26936;50.524;8.684;2023-07-20T13:19:10;99113.97;;;24.83;42.58